sensor_id;sensor_type;location;lat;lon;timestamp;pressure;altitude;pressure_sealevel;temperature;humidity
58757;BME280;44527;47.460;19.016;2023-01-31T00:00:25;99921.38;;;2.89;99.40
58757;BME280;44527;47.460;19.016;2023-01-31T00:03:27;99922.88;;;2.94;99.63
58757;BME280;44527;47.460;19.016;2023-01-31T00:06:32;99925.75;;;2.87;99.91
58757;BME280;44527;47.460;19.016;2023-01-31T00:09:35;99926.97;;;2.78;98.01
58757;BME280;44527;47.460;19.016;2023-01-31T00:12:37;99926.34;;;2.93;96.57
58757;BME280;44527;47.460;19.016;2023-01-31T00:15:40;99898.16;;;2.86;96.12
58757;BME280;44527;47.460;19.016;2023-01-31T00:18:43;99911.31;;;2.81;97.78
58757;BME280;44527;47.460;19.016;2023-01-31T00:21:46;99927.34;;;2.69;96.37
58757;BME280;44527;47.460;19.016;2023-01-31T00:24:48;99911.25;;;2.83;95.08
58757;BME280;44527;47.460;19.016;2023-01-31T00:27:50;99919.63;;;2.89;95.71
58757;BME280;44527;47.460;19.016;2023-01-31T00:30:53;99899.03;;;3.07;95.20
58757;BME280;44527;47.460;19.016;2023-01-31T00:33:59;99898.62;;;3.16;94.32
58757;BME280;44527;47.460;19.016;2023-01-31T00:37:02;99889.94;;;3.17;94.09
58757;BME280;44527;47.460;19.016;2023-01-31T00:40:07;99857.41;;;3.10;95.02
58757;BME280;44527;47.460;19.016;2023-01-31T00:43:09;99859.66;;;3.17;95.15
58757;BME280;44527;47.460;19.016;2023-01-31T00:46:15;99845.06;;;3.15;93.81
58757;BME280;44527;47.460;19.016;2023-01-31T00:49:17;99837.88;;;3.21;91.97
58757;BME280;44527;47.460;19.016;2023-01-31T00:52:20;99850.84;;;3.21;91.85
58757;BME280;44527;47.460;19.016;2023-01-31T00:55:22;99850.63;;;3.26;92.74
58757;BME280;44527;47.460;19.016;2023-01-31T00:58:25;99858.28;;;3.29;90.13
58757;BME280;44527;47.460;19.016;2023-01-31T01:01:29;99861.94;;;3.25;89.40
58757;BME280;44527;47.460;19.016;2023-01-31T01:04:31;99853.38;;;3.23;89.78
58757;BME280;44527;47.460;19.016;2023-01-31T01:07:34;99848.19;;;3.23;88.24
58757;BME280;44527;47.460;19.016;2023-01-31T01:10:37;99841.44;;;3.19;86.41
58757;BME280;44527;47.460;19.016;2023-01-31T01:13:40;99854.41;;;3.19;86.33
58757;BME280;44527;47.460;19.016;2023-01-31T01:16:43;99854.41;;;3.19;86.80
58757;BME280;44527;47.460;19.016;2023-01-31T01:19:45;99840.63;;;3.18;85.58
58757;BME280;44527;47.460;19.016;2023-01-31T01:22:47;99853.38;;;3.23;84.60
58757;BME280;44527;47.460;19.016;2023-01-31T01:25:50;99845.44;;;3.26;84.26
58757;BME280;44527;47.460;19.016;2023-01-31T01:28:54;99833.41;;;3.25;83.89
58757;BME280;44527;47.460;19.016;2023-01-31T01:31:57;99827.50;;;3.21;83.29
58757;BME280;44527;47.460;19.016;2023-01-31T01:35:00;99848.44;;;3.17;84.11
58757;BME280;44527;47.460;19.016;2023-01-31T01:38:02;99862.19;;;3.19;83.38
58757;BME280;44527;47.460;19.016;2023-01-31T01:41:05;99874.25;;;3.20;83.95
58757;BME280;44527;47.460;19.016;2023-01-31T01:47:48;99899.47;;;3.16;83.23
58757;BME280;44527;47.460;19.016;2023-01-31T01:50:52;99894.59;;;3.09;83.85
58757;BME280;44527;47.460;19.016;2023-01-31T01:53:59;99895.06;;;3.18;83.40
58757;BME280;44527;47.460;19.016;2023-01-31T01:57:05;99893.63;;;3.11;83.43
58757;BME280;44527;47.460;19.016;2023-01-31T02:00:16;99908.22;;;3.14;83.73
58757;BME280;44527;47.460;19.016;2023-01-31T02:03:20;99909.91;;;3.15;83.30
58757;BME280;44527;47.460;19.016;2023-01-31T02:06:23;99911.53;;;3.17;83.77
58757;BME280;44527;47.460;19.016;2023-01-31T02:09:35;99902.84;;;3.18;83.15
58757;BME280;44527;47.460;19.016;2023-01-31T02:12:40;99924.44;;;3.19;82.65
58757;BME280;44527;47.460;19.016;2023-01-31T02:15:44;99932.22;;;3.19;82.76
58757;BME280;44527;47.460;19.016;2023-01-31T02:18:47;99931.50;;;3.15;82.56
58757;BME280;44527;47.460;19.016;2023-01-31T02:22:08;99946.19;;;3.15;82.93
58757;BME280;44527;47.460;19.016;2023-01-31T02:35:52;99954.19;;;3.10;82.66
58757;BME280;44527;47.460;19.016;2023-01-31T02:42:10;99953.53;;;3.05;83.26
58757;BME280;44527;47.460;19.016;2023-01-31T02:48:52;99965.66;;;3.05;82.88
58757;BME280;44527;47.460;19.016;2023-01-31T02:51:57;99963.06;;;3.05;82.49
58757;BME280;44527;47.460;19.016;2023-01-31T02:58:42;99966.09;;;3.14;82.27
58757;BME280;44527;47.460;19.016;2023-01-31T03:01:50;99964.31;;;3.16;82.15
58757;BME280;44527;47.460;19.016;2023-01-31T03:04:57;99963.91;;;3.05;82.19
58757;BME280;44527;47.460;19.016;2023-01-31T03:08:02;99973.56;;;3.02;82.65
58757;BME280;44527;47.460;19.016;2023-01-31T03:11:07;99988.94;;;3.06;82.39
58757;BME280;44527;47.460;19.016;2023-01-31T03:14:25;99994.28;;;3.02;82.90
58757;BME280;44527;47.460;19.016;2023-01-31T03:21:15;100008.75;;;3.07;82.36
58757;BME280;44527;47.460;19.016;2023-01-31T03:24:20;100002.78;;;3.05;82.35
58757;BME280;44527;47.460;19.016;2023-01-31T03:27:27;100013.75;;;3.12;81.76
58757;BME280;44527;47.460;19.016;2023-01-31T03:33:40;100015.47;;;3.13;81.10
58757;BME280;44527;47.460;19.016;2023-01-31T03:40:16;100025.62;;;3.17;81.59
58757;BME280;44527;47.460;19.016;2023-01-31T03:43:54;100021.72;;;3.07;81.75
58757;BME280;44527;47.460;19.016;2023-01-31T03:47:09;100016.53;;;3.07;81.60
58757;BME280;44527;47.460;19.016;2023-01-31T03:50:20;100021.00;;;3.04;81.91
58757;BME280;44527;47.460;19.016;2023-01-31T03:53:40;100023.66;;;3.02;82.08
58757;BME280;44527;47.460;19.016;2023-01-31T03:56:51;100041.44;;;2.89;82.67
58757;BME280;44527;47.460;19.016;2023-01-31T03:59:57;100040.28;;;2.96;82.14
58757;BME280;44527;47.460;19.016;2023-01-31T04:03:09;100049.94;;;2.93;82.33
58757;BME280;44527;47.460;19.016;2023-01-31T04:06:16;100055.84;;;2.96;81.75
58757;BME280;44527;47.460;19.016;2023-01-31T04:09:18;100054.16;;;2.95;82.28
58757;BME280;44527;47.460;19.016;2023-01-31T04:12:24;100064.66;;;2.92;81.72
58757;BME280;44527;47.460;19.016;2023-01-31T04:15:26;100070.56;;;2.96;81.87
58757;BME280;44527;47.460;19.016;2023-01-31T04:18:29;100081.06;;;2.93;81.71
58757;BME280;44527;47.460;19.016;2023-01-31T04:21:31;100082.69;;;2.95;82.11
58757;BME280;44527;47.460;19.016;2023-01-31T04:24:34;100087.81;;;2.97;82.02
58757;BME280;44527;47.460;19.016;2023-01-31T04:27:37;100084.44;;;2.95;82.62
58757;BME280;44527;47.460;19.016;2023-01-31T04:30:40;100084.44;;;2.95;82.97
58757;BME280;44527;47.460;19.016;2023-01-31T04:33:42;100083.75;;;2.90;83.79
58757;BME280;44527;47.460;19.016;2023-01-31T04:36:45;100103.06;;;2.83;84.61
58757;BME280;44527;47.460;19.016;2023-01-31T04:39:47;100107.94;;;2.90;84.96
58757;BME280;44527;47.460;19.016;2023-01-31T04:42:50;100117.88;;;2.79;85.97
58757;BME280;44527;47.460;19.016;2023-01-31T04:45:53;100128.06;;;2.84;86.17
58757;BME280;44527;47.460;19.016;2023-01-31T04:48:55;100129.78;;;2.85;86.69
58757;BME280;44527;47.460;19.016;2023-01-31T04:51:58;100123.69;;;2.86;86.85
58757;BME280;44527;47.460;19.016;2023-01-31T04:55:00;100132.75;;;2.74;87.98
58757;BME280;44527;47.460;19.016;2023-01-31T04:58:02;100140.38;;;2.79;88.97
58757;BME280;44527;47.460;19.016;2023-01-31T05:01:08;100153.03;;;2.86;89.87
58757;BME280;44527;47.460;19.016;2023-01-31T05:04:11;100164.72;;;2.96;90.02
58757;BME280;44527;47.460;19.016;2023-01-31T05:07:14;100171.66;;;2.96;90.00
58757;BME280;44527;47.460;19.016;2023-01-31T05:10:16;100177.31;;;3.07;90.91
58757;BME280;44527;47.460;19.016;2023-01-31T05:13:24;100177.19;;;3.10;92.77
58757;BME280;44527;47.460;19.016;2023-01-31T05:16:29;100183.06;;;3.15;94.30
58757;BME280;44527;47.460;19.016;2023-01-31T05:19:32;100171.59;;;3.21;94.81
58757;BME280;44527;47.460;19.016;2023-01-31T05:22:34;100151.25;;;3.10;94.56
58757;BME280;44527;47.460;19.016;2023-01-31T05:25:37;100159.16;;;3.07;95.57
58757;BME280;44527;47.460;19.016;2023-01-31T05:28:40;100167.97;;;3.03;94.35
58757;BME280;44527;47.460;19.016;2023-01-31T05:31:44;100164.62;;;2.99;93.00
58757;BME280;44527;47.460;19.016;2023-01-31T05:34:46;100164.81;;;2.95;92.98
58757;BME280;44527;47.460;19.016;2023-01-31T05:37:52;100156.91;;;2.98;91.45
58757;BME280;44527;47.460;19.016;2023-01-31T05:40:54;100147.50;;;2.95;90.87
58757;BME280;44527;47.460;19.016;2023-01-31T05:43:57;100160.56;;;2.92;90.15
58757;BME280;44527;47.460;19.016;2023-01-31T05:46:59;100162.81;;;2.78;91.13
58757;BME280;44527;47.460;19.016;2023-01-31T05:50:04;100179.50;;;2.71;91.27
58757;BME280;44527;47.460;19.016;2023-01-31T05:53:06;100180.56;;;2.65;91.60
58757;BME280;44527;47.460;19.016;2023-01-31T05:56:10;100203.00;;;2.66;91.23
58757;BME280;44527;47.460;19.016;2023-01-31T05:59:12;100194.78;;;2.79;88.54
58757;BME280;44527;47.460;19.016;2023-01-31T06:02:15;100200.09;;;2.75;88.94
58757;BME280;44527;47.460;19.016;2023-01-31T06:05:18;100206.16;;;2.74;89.12
58757;BME280;44527;47.460;19.016;2023-01-31T06:08:20;100206.44;;;2.67;89.88
58757;BME280;44527;47.460;19.016;2023-01-31T06:11:23;100210.59;;;2.71;88.83
58757;BME280;44527;47.460;19.016;2023-01-31T06:14:26;100212.50;;;2.66;88.90
58757;BME280;44527;47.460;19.016;2023-01-31T06:17:29;100204.06;;;2.61;88.80
58757;BME280;44527;47.460;19.016;2023-01-31T06:20:32;100209.91;;;2.66;87.59
58757;BME280;44527;47.460;19.016;2023-01-31T06:23:35;100226.38;;;2.65;87.71
58757;BME280;44527;47.460;19.016;2023-01-31T06:26:37;100213.72;;;2.81;85.98
58757;BME280;44527;47.460;19.016;2023-01-31T06:29:41;100219.72;;;2.81;86.20
58757;BME280;44527;47.460;19.016;2023-01-31T06:32:43;100228.75;;;2.71;85.77
58757;BME280;44527;47.460;19.016;2023-01-31T06:35:46;100223.72;;;2.91;83.91
58757;BME280;44527;47.460;19.016;2023-01-31T06:38:51;100222.78;;;2.92;83.79
58757;BME280;44527;47.460;19.016;2023-01-31T06:41:54;100219.87;;;3.02;81.96
58757;BME280;44527;47.460;19.016;2023-01-31T06:44:56;100240.78;;;2.97;81.25
58757;BME280;44527;47.460;19.016;2023-01-31T06:47:59;100231.88;;;3.04;80.64
58757;BME280;44527;47.460;19.016;2023-01-31T06:51:02;100217.97;;;3.07;79.41
58757;BME280;44527;47.460;19.016;2023-01-31T06:54:05;100232.09;;;3.21;79.50
58757;BME280;44527;47.460;19.016;2023-01-31T06:57:07;100242.62;;;3.40;79.46
58757;BME280;44527;47.460;19.016;2023-01-31T07:00:11;100235.53;;;4.10;76.08
58757;BME280;44527;47.460;19.016;2023-01-31T07:03:13;100242.78;;;4.44;73.52
58757;BME280;44527;47.460;19.016;2023-01-31T07:06:17;100242.44;;;4.31;73.44
58757;BME280;44527;47.460;19.016;2023-01-31T07:09:21;100234.78;;;4.08;73.25
58757;BME280;44527;47.460;19.016;2023-01-31T07:12:25;100230.97;;;3.95;73.48
58757;BME280;44527;47.460;19.016;2023-01-31T07:15:29;100240.84;;;3.86;73.53
58757;BME280;44527;47.460;19.016;2023-01-31T07:18:37;100239.56;;;3.75;74.00
58757;BME280;44527;47.460;19.016;2023-01-31T07:21:39;100248.66;;;3.85;73.53
58757;BME280;44527;47.460;19.016;2023-01-31T07:24:42;100233.94;;;3.85;73.58
58757;BME280;44527;47.460;19.016;2023-01-31T07:27:44;100258.88;;;3.89;74.29
58757;BME280;44527;47.460;19.016;2023-01-31T07:30:47;100255.62;;;3.84;73.96
58757;BME280;44527;47.460;19.016;2023-01-31T07:33:49;100262.44;;;3.87;74.64
58757;BME280;44527;47.460;19.016;2023-01-31T07:36:52;100252.59;;;3.95;75.10
58757;BME280;44527;47.460;19.016;2023-01-31T07:39:55;100273.44;;;3.94;74.59
58757;BME280;44527;47.460;19.016;2023-01-31T07:42:58;100274.50;;;3.88;76.02
58757;BME280;44527;47.460;19.016;2023-01-31T07:46:01;100283.88;;;3.92;75.23
58757;BME280;44527;47.460;19.016;2023-01-31T07:49:04;100282.72;;;3.99;75.12
58757;BME280;44527;47.460;19.016;2023-01-31T07:52:06;100280.59;;;4.09;75.51
58757;BME280;44527;47.460;19.016;2023-01-31T07:55:10;100286.84;;;4.05;73.36
58757;BME280;44527;47.460;19.016;2023-01-31T07:58:14;100275.28;;;4.12;72.03
58757;BME280;44527;47.460;19.016;2023-01-31T08:01:22;100288.63;;;4.03;72.42
58757;BME280;44527;47.460;19.016;2023-01-31T08:04:43;100305.41;;;4.16;69.94
58757;BME280;44527;47.460;19.016;2023-01-31T08:07:46;100320.75;;;4.22;70.22
58757;BME280;44527;47.460;19.016;2023-01-31T08:11:09;100323.84;;;4.32;70.16
58757;BME280;44527;47.460;19.016;2023-01-31T08:14:13;100326.44;;;4.32;70.18
58757;BME280;44527;47.460;19.016;2023-01-31T08:17:16;100338.56;;;4.31;70.38
58757;BME280;44527;47.460;19.016;2023-01-31T08:20:19;100335.00;;;4.34;70.49
58757;BME280;44527;47.460;19.016;2023-01-31T08:23:22;100345.00;;;4.45;70.69
58757;BME280;44527;47.460;19.016;2023-01-31T08:26:25;100363.81;;;4.50;70.48
58757;BME280;44527;47.460;19.016;2023-01-31T08:29:28;100366.16;;;4.56;69.45
58757;BME280;44527;47.460;19.016;2023-01-31T08:32:30;100374.88;;;4.55;69.87
58757;BME280;44527;47.460;19.016;2023-01-31T08:35:34;100387.09;;;4.53;69.90
58757;BME280;44527;47.460;19.016;2023-01-31T08:38:37;100387.03;;;4.54;69.43
58757;BME280;44527;47.460;19.016;2023-01-31T08:41:40;100383.66;;;4.52;70.43
58757;BME280;44527;47.460;19.016;2023-01-31T08:44:42;100396.22;;;4.63;69.54
58757;BME280;44527;47.460;19.016;2023-01-31T08:47:45;100411.69;;;4.66;70.13
58757;BME280;44527;47.460;19.016;2023-01-31T08:50:47;100421.66;;;4.77;69.48
58757;BME280;44527;47.460;19.016;2023-01-31T08:53:50;100408.22;;;4.88;68.79
58757;BME280;44527;47.460;19.016;2023-01-31T08:56:53;100430.41;;;4.96;68.06
58757;BME280;44527;47.460;19.016;2023-01-31T08:59:56;100424.34;;;4.96;68.57
58757;BME280;44527;47.460;19.016;2023-01-31T09:02:59;100419.63;;;4.83;68.02
58757;BME280;44527;47.460;19.016;2023-01-31T09:06:04;100426.72;;;4.80;68.81
58757;BME280;44527;47.460;19.016;2023-01-31T09:09:07;100425.34;;;4.93;69.22
58757;BME280;44527;47.460;19.016;2023-01-31T09:12:13;100430.28;;;4.77;68.09
58757;BME280;44527;47.460;19.016;2023-01-31T09:15:16;100438.50;;;4.89;69.20
58757;BME280;44527;47.460;19.016;2023-01-31T09:18:18;100423.87;;;4.86;68.23
58757;BME280;44527;47.460;19.016;2023-01-31T09:21:22;100434.72;;;4.96;69.92
58757;BME280;44527;47.460;19.016;2023-01-31T09:24:25;100420.31;;;4.89;67.68
58757;BME280;44527;47.460;19.016;2023-01-31T10:19:54;100472.44;;;5.48;67.88
58757;BME280;44527;47.460;19.016;2023-01-31T10:26:28;100460.78;;;5.37;65.14
58757;BME280;44527;47.460;19.016;2023-01-31T10:29:49;100490.84;;;5.64;65.46
58757;BME280;44527;47.460;19.016;2023-01-31T10:33:07;100470.59;;;5.50;63.29
58757;BME280;44527;47.460;19.016;2023-01-31T10:36:16;100473.41;;;5.66;64.26
58757;BME280;44527;47.460;19.016;2023-01-31T10:39:24;100455.50;;;5.38;63.34
58757;BME280;44527;47.460;19.016;2023-01-31T10:42:37;100449.97;;;5.25;62.73
58757;BME280;44527;47.460;19.016;2023-01-31T10:45:40;100451.25;;;5.76;63.41
58757;BME280;44527;47.460;19.016;2023-01-31T10:48:44;100455.66;;;5.95;60.61
58757;BME280;44527;47.460;19.016;2023-01-31T10:52:13;100461.59;;;6.17;63.21
58757;BME280;44527;47.460;19.016;2023-01-31T10:58:41;100458.66;;;6.06;59.56
58757;BME280;44527;47.460;19.016;2023-01-31T11:01:44;100449.63;;;5.94;59.00
58757;BME280;44527;47.460;19.016;2023-01-31T11:04:50;100442.31;;;5.82;58.35
58757;BME280;44527;47.460;19.016;2023-01-31T11:07:58;100449.69;;;5.93;57.99
58757;BME280;44527;47.460;19.016;2023-01-31T11:11:10;100441.53;;;5.80;58.90
58757;BME280;44527;47.460;19.016;2023-01-31T11:14:17;100433.06;;;5.95;58.58
58757;BME280;44527;47.460;19.016;2023-01-31T11:17:20;100442.56;;;5.96;60.10
58757;BME280;44527;47.460;19.016;2023-01-31T11:20:34;100431.94;;;6.01;58.57
58757;BME280;44527;47.460;19.016;2023-01-31T11:23:37;100424.03;;;6.03;59.18
58757;BME280;44527;47.460;19.016;2023-01-31T11:26:51;100428.13;;;6.08;58.45
58757;BME280;44527;47.460;19.016;2023-01-31T11:29:54;100430.13;;;5.83;57.00
58757;BME280;44527;47.460;19.016;2023-01-31T11:33:02;100428.97;;;6.09;57.83
58757;BME280;44527;47.460;19.016;2023-01-31T11:36:08;100425.47;;;5.70;57.90
58757;BME280;44527;47.460;19.016;2023-01-31T11:39:28;100427.22;;;5.51;58.83
58757;BME280;44527;47.460;19.016;2023-01-31T11:42:33;100438.78;;;5.64;60.43
58757;BME280;44527;47.460;19.016;2023-01-31T11:45:36;100421.34;;;5.66;58.91
58757;BME280;44527;47.460;19.016;2023-01-31T11:48:42;100418.09;;;5.80;60.30
58757;BME280;44527;47.460;19.016;2023-01-31T11:51:48;100416.16;;;6.04;58.06
58757;BME280;44527;47.460;19.016;2023-01-31T11:54:54;100411.19;;;6.36;59.32
58757;BME280;44527;47.460;19.016;2023-01-31T11:57:58;100407.69;;;6.37;56.69
58757;BME280;44527;47.460;19.016;2023-01-31T12:01:19;100399.00;;;6.36;55.26
58757;BME280;44527;47.460;19.016;2023-01-31T12:04:33;100424.31;;;6.34;55.78
58757;BME280;44527;47.460;19.016;2023-01-31T12:10:48;100400.22;;;6.29;56.14
58757;BME280;44527;47.460;19.016;2023-01-31T12:14:01;100401.31;;;6.25;58.29
58757;BME280;44527;47.460;19.016;2023-01-31T12:17:11;100409.38;;;6.38;57.21
58757;BME280;44527;47.460;19.016;2023-01-31T12:40:31;100414.62;;;6.00;55.74
58757;BME280;44527;47.460;19.016;2023-01-31T13:03:36;100430.16;;;6.20;59.12
58757;BME280;44527;47.460;19.016;2023-01-31T13:06:43;100434.25;;;6.26;58.30
58757;BME280;44527;47.460;19.016;2023-01-31T13:09:48;100439.28;;;6.31;58.37
58757;BME280;44527;47.460;19.016;2023-01-31T13:12:56;100454.84;;;6.13;58.89
58757;BME280;44527;47.460;19.016;2023-01-31T13:19:50;100469.88;;;5.88;60.61
58757;BME280;44527;47.460;19.016;2023-01-31T13:23:00;100477.78;;;6.05;62.39
58757;BME280;44527;47.460;19.016;2023-01-31T13:29:36;100484.19;;;6.36;62.36
58757;BME280;44527;47.460;19.016;2023-01-31T13:32:42;100472.09;;;6.35;61.58
58757;BME280;44527;47.460;19.016;2023-01-31T13:36:37;100489.19;;;6.03;61.65
58757;BME280;44527;47.460;19.016;2023-01-31T13:39:35;100498.06;;;5.98;62.51
58757;BME280;44527;47.460;19.016;2023-01-31T13:42:39;100495.19;;;6.05;63.29
58757;BME280;44527;47.460;19.016;2023-01-31T13:45:44;100503.28;;;6.17;63.32
58757;BME280;44527;47.460;19.016;2023-01-31T13:48:57;100515.03;;;5.87;63.13
58757;BME280;44527;47.460;19.016;2023-01-31T13:55:41;100498.72;;;5.63;63.60
58757;BME280;44527;47.460;19.016;2023-01-31T13:58:47;100501.66;;;5.75;63.79
58757;BME280;44527;47.460;19.016;2023-01-31T14:01:52;100505.72;;;5.81;64.45
58757;BME280;44527;47.460;19.016;2023-01-31T14:05:04;100498.91;;;5.79;65.08
58757;BME280;44527;47.460;19.016;2023-01-31T14:11:32;100506.53;;;5.83;64.83
58757;BME280;44527;47.460;19.016;2023-01-31T14:20:41;100516.66;;;5.89;67.98
58757;BME280;44527;47.460;19.016;2023-01-31T14:23:44;100517.94;;;6.01;66.21
58757;BME280;44527;47.460;19.016;2023-01-31T14:26:49;100518.97;;;5.97;67.06
58757;BME280;44527;47.460;19.016;2023-01-31T14:40:03;100519.41;;;5.25;68.90
58757;BME280;44527;47.460;19.016;2023-01-31T14:47:03;100519.28;;;5.28;68.50
58757;BME280;44527;47.460;19.016;2023-01-31T15:00:17;100536.66;;;5.27;69.33
58757;BME280;44527;47.460;19.016;2023-01-31T15:03:54;100520.00;;;5.32;69.63
58757;BME280;44527;47.460;19.016;2023-01-31T15:06:59;100520.91;;;5.30;70.90
58757;BME280;44527;47.460;19.016;2023-01-31T15:10:02;100520.44;;;5.21;69.38
58757;BME280;44527;47.460;19.016;2023-01-31T15:17:15;100515.53;;;5.13;69.82
58757;BME280;44527;47.460;19.016;2023-01-31T15:20:41;100516.72;;;5.06;70.30
58757;BME280;44527;47.460;19.016;2023-01-31T15:23:45;100519.34;;;5.04;72.72
58757;BME280;44527;47.460;19.016;2023-01-31T15:26:47;100539.81;;;4.92;76.20
58757;BME280;44527;47.460;19.016;2023-01-31T15:30:02;100531.91;;;4.95;75.27
58757;BME280;44527;47.460;19.016;2023-01-31T15:36:26;100533.28;;;4.81;75.74
58757;BME280;44527;47.460;19.016;2023-01-31T15:39:37;100539.38;;;4.80;75.62
58757;BME280;44527;47.460;19.016;2023-01-31T15:42:42;100526.69;;;4.73;75.18
58757;BME280;44527;47.460;19.016;2023-01-31T15:45:44;100528.69;;;4.66;76.77
58757;BME280;44527;47.460;19.016;2023-01-31T15:48:49;100515.56;;;4.69;76.27
58757;BME280;44527;47.460;19.016;2023-01-31T15:52:21;100510.28;;;4.71;75.82
58757;BME280;44527;47.460;19.016;2023-01-31T15:55:24;100511.91;;;4.75;76.47
58757;BME280;44527;47.460;19.016;2023-01-31T15:58:28;100513.56;;;4.54;78.56
58757;BME280;44527;47.460;19.016;2023-01-31T16:01:31;100519.59;;;4.54;77.30
58757;BME280;44527;47.460;19.016;2023-01-31T16:04:38;100514.72;;;4.69;76.35
58757;BME280;44527;47.460;19.016;2023-01-31T16:07:45;100515.81;;;4.63;77.94
58757;BME280;44527;47.460;19.016;2023-01-31T16:10:49;100515.09;;;4.59;77.20
58757;BME280;44527;47.460;19.016;2023-01-31T16:13:54;100518.87;;;4.51;77.66
58757;BME280;44527;47.460;19.016;2023-01-31T16:16:58;100523.88;;;4.55;77.79
58757;BME280;44527;47.460;19.016;2023-01-31T16:20:00;100520.88;;;4.44;79.17
58757;BME280;44527;47.460;19.016;2023-01-31T16:23:03;100507.66;;;4.50;79.38
58757;BME280;44527;47.460;19.016;2023-01-31T16:26:19;100517.63;;;4.61;79.36
58757;BME280;44527;47.460;19.016;2023-01-31T16:29:36;100515.25;;;4.55;78.26
58757;BME280;44527;47.460;19.016;2023-01-31T16:32:40;100515.44;;;4.50;79.44
58757;BME280;44527;47.460;19.016;2023-01-31T16:35:45;100518.75;;;4.54;79.35
58757;BME280;44527;47.460;19.016;2023-01-31T16:38:57;100520.69;;;4.49;79.40
58757;BME280;44527;47.460;19.016;2023-01-31T16:42:03;100528.47;;;4.49;79.04
58757;BME280;44527;47.460;19.016;2023-01-31T16:45:28;100515.78;;;4.41;79.82
58757;BME280;44527;47.460;19.016;2023-01-31T16:48:33;100526.59;;;4.52;79.35
58757;BME280;44527;47.460;19.016;2023-01-31T16:51:42;100531.44;;;4.40;80.29
58757;BME280;44527;47.460;19.016;2023-01-31T16:54:50;100536.50;;;4.43;80.59
58757;BME280;44527;47.460;19.016;2023-01-31T16:57:52;100526.53;;;4.32;82.12
58757;BME280;44527;47.460;19.016;2023-01-31T17:01:11;100526.69;;;4.27;82.34
58757;BME280;44527;47.460;19.016;2023-01-31T17:04:17;100520.47;;;4.31;82.06
58757;BME280;44527;47.460;19.016;2023-01-31T17:07:29;100518.63;;;4.35;81.98
58757;BME280;44527;47.460;19.016;2023-01-31T17:10:33;100527.16;;;4.38;82.11
58757;BME280;44527;47.460;19.016;2023-01-31T17:13:36;100528.37;;;4.28;81.97
58757;BME280;44527;47.460;19.016;2023-01-31T17:16:38;100528.31;;;4.30;81.74
58757;BME280;44527;47.460;19.016;2023-01-31T17:19:41;100528.22;;;4.33;82.02
58757;BME280;44527;47.460;19.016;2023-01-31T17:22:44;100530.12;;;4.28;82.73
58757;BME280;44527;47.460;19.016;2023-01-31T17:25:58;100529.28;;;4.27;82.43
58757;BME280;44527;47.460;19.016;2023-01-31T17:29:00;100530.75;;;4.34;81.49
58757;BME280;44527;47.460;19.016;2023-01-31T17:32:04;100530.59;;;4.39;82.71
58757;BME280;44527;47.460;19.016;2023-01-31T17:35:30;100533.91;;;4.43;83.08
58757;BME280;44527;47.460;19.016;2023-01-31T17:38:33;100535.72;;;4.41;81.81
58757;BME280;44527;47.460;19.016;2023-01-31T17:41:36;100532.34;;;4.38;81.63
58757;BME280;44527;47.460;19.016;2023-01-31T17:44:40;100525.44;;;4.37;82.92
58757;BME280;44527;47.460;19.016;2023-01-31T17:47:43;100528.94;;;4.36;82.34
58757;BME280;44527;47.460;19.016;2023-01-31T17:50:47;100523.47;;;4.44;82.25
58757;BME280;44527;47.460;19.016;2023-01-31T17:53:49;100521.84;;;4.42;81.29
58757;BME280;44527;47.460;19.016;2023-01-31T17:56:52;100524.31;;;4.45;81.61
58757;BME280;44527;47.460;19.016;2023-01-31T17:59:54;100526.13;;;4.43;81.09
58757;BME280;44527;47.460;19.016;2023-01-31T18:02:57;100517.75;;;4.34;80.57
58757;BME280;44527;47.460;19.016;2023-01-31T18:06:04;100514.56;;;4.50;80.30
58757;BME280;44527;47.460;19.016;2023-01-31T18:09:06;100506.72;;;4.51;79.66
58757;BME280;44527;47.460;19.016;2023-01-31T18:12:11;100502.59;;;4.46;79.03
58757;BME280;44527;47.460;19.016;2023-01-31T18:15:13;100500.72;;;4.49;79.79
58757;BME280;44527;47.460;19.016;2023-01-31T18:18:16;100497.41;;;4.46;78.60
58757;BME280;44527;47.460;19.016;2023-01-31T18:21:20;100500.47;;;4.33;78.92
58757;BME280;44527;47.460;19.016;2023-01-31T18:24:23;100502.22;;;4.33;78.78
58757;BME280;44527;47.460;19.016;2023-01-31T18:27:25;100509.06;;;4.35;78.82
58757;BME280;44527;47.460;19.016;2023-01-31T18:30:28;100512.19;;;4.44;77.80
58757;BME280;44527;47.460;19.016;2023-01-31T18:33:31;100491.72;;;4.36;78.56
58757;BME280;44527;47.460;19.016;2023-01-31T18:36:33;100503.62;;;4.42;78.98
58757;BME280;44527;47.460;19.016;2023-01-31T18:39:36;100502.03;;;4.37;79.45
58757;BME280;44527;47.460;19.016;2023-01-31T18:42:38;100495.16;;;4.36;80.25
58757;BME280;44527;47.460;19.016;2023-01-31T18:45:40;100502.91;;;4.38;79.84
58757;BME280;44527;47.460;19.016;2023-01-31T18:48:43;100511.44;;;4.42;79.26
58757;BME280;44527;47.460;19.016;2023-01-31T18:51:45;100507.87;;;4.44;77.95
58757;BME280;44527;47.460;19.016;2023-01-31T18:54:48;100514.87;;;4.42;78.74
58757;BME280;44527;47.460;19.016;2023-01-31T18:57:52;100511.59;;;4.37;79.44
58757;BME280;44527;47.460;19.016;2023-01-31T19:01:03;100505.56;;;4.36;78.36
58757;BME280;44527;47.460;19.016;2023-01-31T19:04:06;100504.16;;;4.50;77.53
58757;BME280;44527;47.460;19.016;2023-01-31T19:07:08;100505.19;;;4.46;78.33
58757;BME280;44527;47.460;19.016;2023-01-31T19:10:11;100497.25;;;4.50;77.84
58757;BME280;44527;47.460;19.016;2023-01-31T19:13:13;100504.97;;;4.52;76.68
58757;BME280;44527;47.460;19.016;2023-01-31T19:16:20;100501.44;;;4.53;77.35
58757;BME280;44527;47.460;19.016;2023-01-31T19:19:23;100502.59;;;4.46;75.76
58757;BME280;44527;47.460;19.016;2023-01-31T19:22:25;100510.34;;;4.47;74.86